Date,TemperatureHighF,TemperatureAvgF,TemperatureLowF,DewpointHighF,DewpointAvgF,DewpointLowF,HumidityHigh,HumidityAvg,HumidityLow,PressureMaxIn,PressureMinIn,WindSpeedMaxMPH,WindSpeedAvgMPH,GustSpeedMaxMPH,PrecipitationSumIn
2013-1-1,32.4,24.6,15.0,35.0,35.0,35.0,78,78,78,29.86,29.68,7,0,9,0.00
2013-1-2,28.7,17.6,9.3,35.0,35.0,35.0,78,78,78,29.91,29.81,5,1,5,0.00
2013-1-3,34.7,25.1,13.7,35.0,35.0,35.0,78,78,78,30.00,29.83,8,2,10,0.04
2013-1-4,34.9,27.0,19.0,35.0,35.0,35.0,78,78,78,30.06,29.93,9,3,11,0.00
2013-1-5,40.5,31.3,18.0,35.0,35.0,35.0,78,78,78,29.95,29.73,9,3,14,0.00
2013-1-6,37.5,31.4,18.7,35.0,35.0,35.0,78,78,78,30.00,29.67,10,5,14,0.00
2013-1-7,37.7,27.7,16.9,35.0,35.0,35.0,78,78,78,30.05,29.80,13,5,16,0.00
2013-1-8,49.2,34.9,22.7,35.0,35.0,35.0,78,78,78,29.86,29.76,10,4,11,0.00
2013-1-9,55.9,46.1,38.1,35.0,35.0,35.0,78,78,78,30.09,29.79,8,3,12,0.18
2013-1-10,58.9,45.5,37.0,35.0,35.0,35.0,78,78,78,30.08,29.41,22,7,27,0.21
2013-1-11,60.8,56.1,52.4,35.0,35.0,35.0,78,78,78,29.53,29.41,16,7,22,0.02
2013-1-12,63.3,52.8,37.4,35.0,35.0,35.0,78,78,78,29.57,29.34,18,6,25,1.35
2013-1-13,37.4,28.6,20.6,35.0,35.0,35.0,78,78,78,29.95,29.44,14,8,18,0.13
2013-1-14,26.4,22.0,18.0,35.0,35.0,35.0,78,78,78,30.09,29.95,10,4,12,0.00
2013-1-15,29.1,24.6,18.5,35.0,35.0,35.0,78,78,78,30.01,29.71,7,4,10,0.01
2013-1-16,36.8,30.8,23.4,35.0,35.0,35.0,78,78,78,29.74,29.63,7,3,10,0.00
2013-1-17,41.1,33.8,24.7,35.0,35.0,35.0,78,78,78,30.10,29.72,16,5,21,0.00
2013-1-18,44.8,34.1,20.1,35.0,35.0,35.0,78,78,78,30.12,29.76,14,6,20,0.00
2013-1-19,55.4,46.3,39.8,35.0,35.0,35.0,78,78,78,29.80,29.53,18,10,23,0.00
2013-1-20,41.4,31.8,26.1,35.0,35.0,35.0,78,78,78,29.93,29.67,13,6,17,0.00
2013-1-21,27.3,21.8,14.6,35.0,35.0,35.0,78,78,78,29.98,29.84,13,8,17,0.00
2013-1-22,22.2,17.2,10.7,35.0,35.0,35.0,78,78,78,30.08,29.97,9,4,14,0.00
2013-1-23,38.8,25.5,12.8,35.0,35.0,35.0,78,78,78,29.99,29.72,11,3,18,0.00
2013-1-24,27.5,22.2,15.0,35.0,35.0,35.0,78,78,78,30.22,29.89,18,8,27,0.00
2013-1-25,39.7,30.5,25.5,35.0,35.0,35.0,78,78,78,29.90,29.69,14,5,17,0.00
2013-1-26,37.4,29.0,21.7,35.0,35.0,35.0,78,78,78,30.00,29.80,10,3,14,0.00
2013-1-27,47.1,33.7,24.7,35.0,35.0,35.0,78,78,78,29.96,29.61,17,9,22,0.13
2013-1-28,60.5,55.6,46.7,59.9,49.5,35.0,78,31,78,29.64,29.53,11,7,15,0.14
2013-1-29,67.3,62.0,52.9,59.5,59.5,59.5,0,0,100,29.53,28.92,23,11,37,0.79
2013-1-30,53.2,42.6,29.1,59.5,59.5,59.5,0,0,100,29.47,28.96,20,10,24,0.31
2013-1-31,32.9,26.1,12.1,59.5,59.5,59.5,0,0,100,29.93,29.47,17,11,22,0.00
2013-2-1,25.0,17.5,8.1,59.5,59.5,59.5,0,0,100,30.11,29.87,12,5,15,0.00
2013-2-2,40.2,30.7,24.8,59.5,59.5,59.5,0,0,100,29.87,29.63,12,6,16,0.00
2013-2-3,34.0,28.2,22.9,59.5,59.5,59.5,0,0,100,29.75,29.59,13,5,20,0.00
2013-2-4,48.8,35.2,22.7,59.5,59.5,59.5,0,0,100,29.66,29.39,12,7,16,0.00
2013-2-5,49.7,37.3,26.8,59.5,59.5,59.5,0,0,100,29.73,29.48,12,4,14,0.00
2013-2-6,47.9,36.2,23.8,59.5,59.5,59.5,0,0,100,29.85,29.70,10,4,11,0.00
2013-2-7,63.6,45.6,32.6,59.5,59.5,59.5,0,0,100,29.71,29.41,12,6,21,0.14
2013-2-8,40.0,35.0,31.9,59.5,59.5,59.5,0,0,100,29.98,29.58,16,8,22,0.00
2013-2-9,42.6,36.2,31.0,59.5,59.5,59.5,0,0,100,29.99,29.65,14,8,17,0.00
2013-2-10,54.3,46.2,38.1,59.5,59.5,59.5,0,0,100,29.69,29.22,20,11,28,0.39
2013-2-11,50.6,41.9,32.1,59.5,59.5,59.5,0,0,100,29.74,29.34,17,9,22,0.00
2013-2-12,49.4,38.2,26.2,59.5,59.5,59.5,0,0,100,29.77,29.52,7,2,9,0.00
2013-2-13,50.8,41.4,35.6,59.5,59.5,59.5,0,0,100,29.53,29.41,9,4,12,0.00
2013-2-14,55.2,43.4,35.2,59.5,59.5,59.5,0,0,100,29.64,29.43,15,6,20,0.00
2013-2-15,41.1,33.9,24.3,59.5,59.5,59.5,0,0,100,29.83,29.63,13,5,17,0.00
2013-2-16,37.0,27.7,19.7,59.5,59.5,59.5,0,0,100,29.83,29.75,10,5,14,0.00
2013-2-17,41.8,29.6,17.1,59.5,59.5,59.5,0,0,100,29.83,29.60,16,7,20,0.00
2013-2-18,55.0,44.1,34.0,59.5,59.5,59.5,0,0,100,29.60,29.19,19,12,29,0.38
2013-2-19,36.5,30.3,23.6,59.5,59.5,59.5,0,0,100,29.87,29.42,18,10,24,0.00
2013-2-20,27.1,22.9,17.6,59.5,59.5,59.5,0,0,100,30.00,29.85,10,4,15,0.00
2013-2-21,32.8,26.0,18.5,59.5,59.5,59.5,0,0,100,29.93,29.41,17,4,21,0.00
2013-2-22,37.7,32.9,23.6,59.5,59.5,59.5,0,0,100,29.66,29.41,10,4,14,0.19
2013-2-23,35.6,27.2,19.4,59.5,59.5,59.5,0,0,100,29.66,29.57,8,2,11,0.00
2013-2-24,43.9,31.6,18.3,59.5,59.5,59.5,0,0,100,29.75,29.61,7,2,9,0.00
2013-2-25,47.6,38.9,29.1,59.5,59.5,59.5,0,0,100,29.68,29.21,14,6,17,0.00
2013-2-26,48.3,40.6,35.1,59.5,59.5,59.5,0,0,100,29.21,28.95,12,7,17,0.72
2013-2-27,37.2,34.3,32.4,59.5,59.5,59.5,0,0,100,29.43,29.20,14,10,21,0.09
2013-2-28,37.0,33.9,32.2,59.5,59.5,59.5,0,0,100,29.65,29.43,9,6,17,0.00
2013-3-1,35.2,32.6,30.3,59.5,59.5,59.5,0,0,100,29.73,29.62,11,4,14,0.14
2013-3-2,33.8,29.4,24.8,59.5,59.5,59.5,0,0,100,29.79,29.72,12,7,15,0.00
2013-3-3,39.5,30.0,19.2,59.5,59.5,59.5,0,0,100,29.79,29.66,7,2,10,0.00
2013-3-4,46.7,39.1,32.1,59.5,59.5,59.5,0,0,100,29.69,29.40,23,11,26,0.00
2013-3-5,41.8,36.0,31.4,59.5,59.5,59.5,0,0,100,29.60,29.35,14,7,21,0.02
2013-3-6,36.3,32.3,28.7,59.5,59.5,59.5,0,0,100,29.94,29.59,15,8,22,0.02
2013-3-7,41.2,32.0,24.0,59.5,59.5,59.5,0,0,100,30.01,29.93,8,2,11,0.01
2013-3-8,49.4,38.1,25.4,59.5,59.5,59.5,0,0,100,30.06,29.83,13,5,16,0.00
2013-3-9,57.5,47.7,38.1,59.5,59.5,59.5,0,0,100,29.84,29.46,20,12,24,0.00
2013-3-10,63.6,55.5,49.0,59.5,59.5,59.5,0,0,100,29.47,29.23,21,10,27,0.32
2013-3-11,49.9,39.2,34.9,59.5,59.5,59.5,0,0,100,29.57,29.26,14,8,19,0.04
2013-3-12,49.2,38.0,28.4,59.5,59.5,59.5,0,0,100,29.75,29.57,13,6,17,0.00
2013-3-13,41.1,32.9,24.8,59.5,59.5,59.5,0,0,100,29.99,29.75,13,7,17,0.00
2013-3-14,44.8,32.5,21.0,59.5,59.5,59.5,0,0,100,30.00,29.72,16,5,19,0.00
2013-3-15,68.1,52.5,28.7,59.5,59.5,59.5,0,0,100,29.72,29.23,13,5,19,0.00
2013-3-16,63.1,48.4,37.0,59.5,59.5,59.5,0,0,100,29.64,29.22,15,7,21,0.02
2013-3-17,37.4,35.2,32.8,59.5,59.5,59.5,0,0,100,29.69,29.36,16,5,21,1.19
2013-3-18,44.6,40.1,35.9,59.5,59.5,59.5,0,0,100,29.57,29.23,15,6,20,0.19
2013-3-19,49.4,37.2,28.5,59.5,59.5,59.5,0,0,100,29.79,29.56,14,5,18,0.00
2013-3-20,38.6,30.7,23.4,59.5,59.5,59.5,0,0,100,29.82,29.68,15,6,19,0.00
2013-3-21,37.0,27.8,19.7,59.5,59.5,59.5,0,0,100,29.71,29.58,9,3,12,0.00
2013-3-22,39.5,32.8,24.0,59.5,59.5,59.5,0,0,100,29.66,29.58,8,3,11,0.00
2013-3-23,53.2,43.6,35.2,59.5,59.5,59.5,0,0,100,29.63,29.38,10,4,17,0.00
2013-3-24,44.4,34.2,31.5,59.5,59.5,59.5,0,0,100,29.44,29.04,14,6,22,0.14
2013-3-25,34.9,31.8,29.9,59.5,59.5,59.5,0,0,100,29.72,29.27,12,8,17,0.18
2013-3-26,45.5,34.3,27.8,59.5,59.5,59.5,0,0,100,29.93,29.72,9,4,14,0.02
2013-3-27,48.8,36.5,25.4,59.5,59.5,59.5,0,0,100,29.99,29.89,7,2,11,0.00
2013-3-28,53.8,41.6,28.0,59.5,59.5,59.5,0,0,100,29.98,29.84,10,3,13,0.00
2013-3-29,58.0,47.3,38.8,59.5,59.5,59.5,0,0,100,29.87,29.77,10,4,13,0.00
2013-3-30,56.9,44.8,33.5,59.5,59.5,59.5,0,0,100,29.80,29.49,16,4,19,0.15
2013-3-31,65.9,53.9,46.5,59.5,59.5,59.5,0,0,100,29.50,29.42,11,3,14,0.00
2013-4-1,51.8,43.7,34.2,59.5,59.5,59.5,0,0,100,29.80,29.49,14,6,21,0.00
2013-4-2,50.1,38.6,27.1,59.5,59.5,59.5,0,0,100,29.93,29.79,8,3,11,0.00
2013-4-3,51.5,41.9,30.7,59.5,59.5,59.5,0,0,100,29.97,29.83,10,4,15,0.00
2013-4-4,60.3,47.2,33.1,59.5,59.5,59.5,0,0,100,29.83,29.59,6,2,10,0.00
2013-4-5,65.4,50.8,36.5,59.5,59.5,59.5,0,0,100,29.73,29.62,10,3,16,0.00
2013-4-6,71.8,56.2,44.1,59.5,59.5,59.5,0,0,100,29.67,29.38,18,9,30,0.00
2013-4-7,77.6,69.6,56.4,56.9,56.9,56.9,0,0,100,30.06,29.98,9,4,12,0.00
2013-4-8,73.9,67.8,59.8,56.9,56.9,56.9,0,0,100,30.04,29.91,14,8,20,0.00
2013-4-9,78.8,69.7,60.8,56.9,56.9,56.9,0,0,100,30.06,29.94,17,8,26,0.00
2013-4-10,80.6,70.7,59.4,56.9,56.9,56.9,0,0,100,29.97,29.75,17,8,25,1.06
2013-4-11,65.1,52.1,41.1,56.9,56.9,56.9,0,0,100,29.87,29.69,14,6,19,0.18
2013-4-12,49.9,42.3,35.2,56.9,49.7,26.3,60,14,51,30.05,29.85,14,6,18,0.00
2013-4-13,59.9,48.0,34.5,37.7,30.9,25.8,71,53,32,30.06,29.93,14,5,16,0.00
2013-4-14,75.5,58.9,42.6,45.1,37.0,32.4,69,48,25,29.94,29.68,20,9,33,0.00
2013-4-15,72.5,64.5,55.4,55.2,51.1,44.3,73,61,52,29.91,29.78,14,6,19,0.00
2013-4-16,63.8,52.5,49.4,52.2,44.8,41.8,77,73,63,30.12,29.83,10,5,15,0.15
2013-4-17,81.3,64.6,49.4,64.1,53.7,43.1,78,68,48,30.10,29.72,13,6,20,0.07
2013-4-18,74.0,67.3,41.4,58.9,54.9,34.8,78,64,56,29.74,29.60,15,9,23,1.89
2013-4-19,48.8,41.7,36.7,34.4,27.5,23.7,74,56,42,30.05,29.67,16,8,24,0.01
2013-4-20,55.5,43.8,31.0,30.6,25.6,17.3,76,51,27,30.36,30.04,7,2,14,0.00
2013-4-21,61.2,48.5,36.5,35.3,28.5,24.7,62,47,30,30.44,30.27,12,5,17,0.00
2013-4-22,68.9,55.6,38.6,44.4,36.6,28.9,74,50,32,30.29,30.01,15,5,20,0.00
2013-4-23,59.6,50.5,42.5,53.3,41.6,36.6,78,70,60,30.04,29.79,11,4,14,0.43
2013-4-24,50.8,42.6,37.2,36.7,32.8,28.8,78,68,45,30.24,29.90,9,4,15,0.43
2013-4-25,61.5,48.3,34.4,37.5,31.6,25.2,77,54,30,30.33,30.23,11,3,15,0.00
2013-4-26,62.6,50.7,41.1,42.3,36.6,31.4,71,58,39,30.40,30.25,13,4,16,0.00
2013-4-27,56.6,52.8,49.4,48.5,44.8,40.9,78,72,66,30.30,29.88,12,4,15,0.02
2013-4-28,59.2,54.7,50.1,50.2,47.8,43.8,78,76,67,29.93,29.83,8,4,13,0.04
2013-4-29,73.3,59.7,42.8,54.3,47.1,37.1,78,64,45,29.95,29.82,11,4,18,0.00
2013-4-30,84.1,68.3,53.6,57.7,51.0,46.3,75,56,33,29.95,29.83,11,5,17,0.00
2013-5-1,79.7,67.7,53.2,57.3,52.1,46.0,77,59,36,30.07,29.94,13,4,17,0.00
2013-5-2,80.8,64.6,53.2,63.9,53.9,46.3,78,68,41,30.10,29.98,7,2,9,0.12
2013-5-3,69.3,56.6,46.5,56.3,48.6,40.5,78,73,56,30.04,29.73,16,5,21,0.31
2013-5-4,46.9,44.9,42.6,40.8,39.1,36.7,78,78,78,29.99,29.83,6,1,8,0.44
2013-5-5,58.0,52.8,45.3,49.9,46.0,39.5,78,76,69,29.96,29.84,10,4,15,0.19
2013-5-6,64.2,57.5,52.0,51.5,48.6,44.8,78,71,60,29.93,29.85,8,4,12,0.02
2013-5-7,75.5,63.6,53.1,53.5,49.1,41.7,78,61,33,30.00,29.92,8,2,11,0.00
2013-5-8,80.8,66.6,53.8,53.7,48.7,37.4,78,56,26,30.02,29.93,6,2,8,0.00
2013-5-9,77.4,67.1,61.0,58.9,54.4,50.8,78,64,45,29.97,29.79,11,3,22,0.31
2013-5-10,71.8,62.6,54.6,59.2,53.1,45.3,77,70,56,29.96,29.78,9,3,12,0.05
2013-5-11,70.2,57.7,47.4,51.4,41.4,28.3,75,56,32,30.11,29.93,11,4,20,0.00
2013-5-12,61.2,51.0,41.8,36.2,30.3,21.3,74,47,27,30.20,30.10,9,2,13,0.00
2013-5-13,70.2,54.9,37.2,44.1,32.6,16.4,78,49,17,30.22,30.05,6,2,11,0.00
2013-5-14,86.9,69.3,49.5,56.5,48.2,36.3,66,49,33,30.06,29.78,10,5,16,0.00
2013-5-15,87.5,75.7,65.2,59.3,53.7,49.5,60,48,34,29.93,29.80,10,6,15,0.00
2013-5-16,78.5,70.8,64.0,60.9,57.5,52.0,75,62,41,29.91,29.81,10,3,14,0.00
2013-5-17,74.2,67.8,62.4,60.9,57.3,54.9,78,68,58,29.96,29.88,14,4,16,0.00
2013-5-18,76.7,69.1,63.1,62.0,58.5,55.6,78,68,55,29.98,29.87,8,2,11,0.00
2013-5-19,86.7,74.8,62.8,69.4,62.4,56.0,78,65,48,29.89,29.73,11,4,14,0.00
2013-5-20,81.1,75.7,68.4,65.4,61.6,56.3,71,61,53,29.90,29.71,17,4,24,0.00
2013-5-21,79.2,68.9,61.9,61.7,58.7,55.5,78,70,49,29.89,29.68,18,4,24,0.40
2013-5-22,79.2,68.1,62.8,61.2,56.0,50.6,77,65,41,29.81,29.65,10,4,16,0.04
2013-5-23,65.2,59.4,49.7,55.9,49.7,40.5,78,69,56,30.20,29.80,10,4,14,0.05
2013-5-24,67.3,54.3,41.8,45.3,37.3,30.4,75,54,30,30.37,30.20,6,3,11,0.00
2013-5-25,67.7,57.9,44.9,48.8,43.1,39.1,78,59,41,30.36,30.14,7,2,9,0.00
2013-5-26,74.6,64.1,54.8,56.7,49.7,42.1,67,59,50,30.21,30.02,14,6,19,0.00
2013-5-27,83.2,69.5,59.6,61.0,56.3,52.1,78,64,39,30.03,29.74,13,5,18,0.28
2013-5-28,82.9,73.1,62.2,64.2,59.3,55.4,78,63,45,29.92,29.81,13,5,19,0.00
2013-5-29,84.1,75.3,62.2,63.7,59.3,55.1,76,58,46,29.97,29.85,9,5,23,0.00
2013-5-30,83.4,74.8,65.8,64.3,61.6,59.2,78,63,48,29.94,29.81,15,7,22,0.38
2013-5-31,80.4,71.3,61.9,66.8,61.8,55.5,78,71,57,29.93,29.76,18,6,23,0.97
2013-6-1,72.3,65.9,62.6,61.9,58.3,55.9,78,75,65,29.89,29.70,19,6,24,2.10
2013-6-2,67.7,62.7,58.2,57.8,53.9,50.3,78,72,61,29.98,29.83,8,3,11,0.01
2013-6-3,67.2,59.6,53.6,51.1,47.8,42.8,78,65,47,30.07,29.96,6,2,11,0.00
2013-6-4,72.1,62.8,50.2,56.5,50.7,44.1,78,65,48,30.08,29.96,9,2,13,0.00
2013-6-5,77.4,69.0,58.3,60.9,55.4,51.4,78,62,42,29.98,29.80,4,1,6,0.00
2013-6-6,80.2,71.3,65.4,60.8,57.4,53.4,75,62,43,29.81,29.74,7,2,10,0.00
2013-6-7,73.0,66.4,61.0,56.6,54.3,49.8,78,64,52,29.85,29.77,8,3,12,0.00
2013-6-8,78.1,67.2,56.8,57.9,54.4,49.7,78,64,39,29.95,29.85,4,1,6,0.00
2013-6-9,77.8,68.3,62.4,61.2,56.8,52.3,78,67,44,29.95,29.76,13,3,19,0.15
2013-6-10,78.3,67.4,60.1,63.5,57.6,53.8,78,70,52,29.88,29.74,7,2,11,0.06
2013-6-11,85.5,74.4,58.5,69.8,62.0,51.9,78,65,50,29.96,29.82,6,2,10,0.00
2013-6-12,91.0,83.1,73.9,70.5,67.6,65.8,76,60,46,29.93,29.68,11,5,21,0.00
2013-6-13,82.0,75.3,62.9,66.2,57.7,48.5,74,55,34,29.94,29.68,11,5,17,0.00
2013-6-14,80.2,69.3,58.3,58.9,53.5,48.6,77,59,37,30.05,29.89,6,2,11,0.00
2013-6-15,85.9,73.1,60.3,64.0,58.4,45.3,78,61,43,30.06,29.89,11,2,15,0.00
2013-6-16,78.1,71.0,67.2,67.9,63.3,59.9,78,75,67,30.00,29.88,6,1,8,0.21
2013-6-17,83.2,72.9,62.8,68.4,63.5,56.4,78,72,55,29.94,29.80,12,2,16,0.71
2013-6-18,86.2,75.8,66.3,67.2,61.4,49.1,78,62,41,29.93,29.83,6,2,11,0.05
2013-6-19,83.6,71.9,62.6,63.2,59.8,51.3,78,66,47,30.03,29.92,5,1,8,0.00
2013-6-20,86.6,75.8,64.9,66.8,61.5,55.9,78,62,41,30.10,30.02,7,2,10,0.00
2013-6-21,89.4,78.5,68.1,68.4,63.7,60.6,76,61,42,30.09,29.98,7,3,11,0.00
2013-6-22,88.9,74.7,66.3,69.1,64.0,59.8,78,69,47,30.10,29.95,10,3,17,0.43
2013-6-23,75.8,68.6,65.1,66.9,61.5,58.4,78,77,64,30.06,29.96,12,3,16,0.69
2013-6-24,85.9,74.3,66.1,72.9,64.8,59.6,78,72,59,30.06,29.91,17,4,21,0.00
2013-6-25,89.0,80.0,71.2,71.4,67.4,63.4,77,65,50,29.94,29.76,8,3,11,0.00
2013-6-26,85.2,76.7,71.4,72.3,67.0,63.6,78,71,59,29.87,29.63,12,4,21,0.39
2013-6-27,90.5,79.7,71.2,70.3,65.8,59.1,78,64,40,29.80,29.71,7,2,12,0.00
2013-6-28,87.6,78.0,69.8,67.1,60.5,48.1,75,57,33,29.79,29.62,7,3,12,0.00
2013-6-29,81.5,69.7,64.3,62.9,58.8,55.6,78,68,49,29.65,29.57,7,2,10,0.06
2013-6-30,71.2,66.3,64.0,62.5,58.7,55.9,78,75,65,29.82,29.65,10,3,14,0.09
2013-7-1,67.9,64.0,61.7,60.5,57.2,54.9,78,77,73,29.88,29.80,7,3,13,1.04
2013-7-2,65.6,64.0,62.2,59.1,57.6,55.7,78,78,77,29.96,29.84,8,4,11,0.77
2013-7-3,78.1,67.8,62.6,61.1,57.3,50.5,78,69,41,30.04,29.93,5,1,8,0.01
2013-7-4,78.6,69.5,57.3,62.8,57.7,50.9,78,66,45,30.06,29.96,6,2,12,0.00
2013-7-5,76.5,68.8,63.5,64.4,59.9,56.8,78,72,60,30.06,29.98,8,2,10,0.00
2013-7-6,82.2,73.7,64.2,66.5,62.4,55.8,76,67,54,30.03,29.93,9,3,13,0.54
2013-7-7,85.5,73.8,62.4,69.6,62.4,55.5,78,67,48,30.03,29.95,5,1,8,0.00
2013-7-8,87.3,78.4,68.8,70.7,66.3,61.3,76,66,52,30.07,29.97,7,2,10,0.00
2013-7-9,92.9,81.7,76.0,73.0,68.8,66.1,71,65,49,30.01,29.89,6,2,9,0.00
2013-7-10,83.8,77.7,71.4,70.3,66.6,63.5,76,68,59,29.95,29.82,9,4,11,0.04
2013-7-11,77.8,76.8,74.0,55.6,54.7,53.2,52,47,45,29.98,29.96,8,5,11,0.00
2013-7-12,78.5,71.2,61.9,58.4,54.8,50.5,71,57,41,30.06,29.99,5,2,9,0.00
2013-7-13,81.1,71.4,65.2,57.6,56.9,55.9,72,61,44,30.01,29.97,4,1,6,0.00
2013-7-14,84.3,79.9,69.3,67.7,65.3,60.6,73,61,52,30.08,30.03,7,4,10,0.00
2013-7-15,84.1,79.4,70.2,72.5,68.4,61.4,75,68,60,30.20,30.12,6,2,8,0.00
2013-7-16,88.3,78.9,68.6,70.2,65.6,59.2,75,64,49,30.26,30.18,4,1,7,0.00
2013-7-17,89.4,81.7,70.7,71.8,67.5,61.2,75,62,46,30.28,30.13,3,0,4,0.00
2013-7-18,92.0,81.9,72.6,72.9,67.8,62.4,75,63,45,30.16,29.97,4,1,5,0.00
2013-7-19,89.9,81.2,72.5,71.3,67.7,63.6,75,64,50,29.98,29.83,6,2,11,0.00
2013-7-20,90.5,76.8,68.9,73.5,65.3,59.2,73,67,52,29.87,29.72,13,3,18,0.43
2013-7-21,82.0,72.8,66.6,69.2,62.9,56.0,77,70,61,29.90,29.78,6,1,9,0.04
2013-7-22,86.6,77.0,70.5,70.0,65.2,59.6,76,66,50,29.79,29.72,5,2,8,0.01
2013-7-23,91.9,79.6,71.1,73.6,66.1,59.3,76,63,49,29.83,29.70,8,3,11,0.00
2013-7-24,76.9,68.9,61.7,61.4,53.4,48.0,75,58,41,29.96,29.82,8,4,11,0.00
2013-7-25,78.1,67.4,56.8,58.1,52.6,46.7,76,61,37,30.04,29.95,7,2,11,0.00
2013-7-26,76.3,67.3,57.3,61.5,56.7,49.0,77,68,52,30.02,29.88,6,2,9,0.01
2013-7-27,76.9,68.1,56.2,60.6,53.9,45.8,77,61,40,29.93,29.86,7,3,12,0.02
2013-7-28,77.8,64.3,51.1,56.7,50.0,44.8,78,61,37,29.99,29.92,8,2,11,0.00
2013-7-29,78.5,66.9,54.1,61.1,54.8,47.3,78,65,46,30.10,29.98,3,1,5,0.00
2013-7-30,69.1,67.2,64.7,61.8,59.0,55.8,76,73,68,30.09,29.96,6,3,11,0.27
2013-7-31,81.1,72.7,67.9,69.0,63.2,59.5,78,71,61,29.98,29.89,6,1,12,0.00
2013-8-1,83.2,73.0,64.5,63.9,59.6,54.1,78,64,40,30.00,29.91,6,1,9,0.00
2013-8-2,82.2,71.2,62.6,67.7,61.3,55.6,78,70,56,29.94,29.85,7,2,11,0.04
2013-8-3,83.8,75.4,67.0,68.5,64.0,59.5,78,67,52,30.03,29.88,7,2,11,0.00
2013-8-4,77.2,69.1,60.3,59.8,56.0,50.7,78,64,45,30.11,30.02,5,1,7,0.00
2013-8-5,67.9,62.9,58.2,60.7,56.3,51.8,78,77,75,30.04,29.85,3,1,4,0.00
2013-8-6,86.6,74.2,67.2,70.2,64.1,60.2,78,70,52,29.87,29.80,5,1,9,0.00
2013-8-7,85.9,74.9,67.2,70.6,65.2,60.2,78,71,56,29.86,29.78,7,2,9,0.00
2013-8-8,82.0,73.4,66.1,70.7,65.4,59.6,78,75,63,29.88,29.78,4,1,6,0.11
2013-8-9,80.6,73.6,67.5,66.8,64.3,60.5,78,72,55,29.98,29.85,5,1,8,0.01
2013-8-10,86.7,75.2,68.1,65.5,62.2,57.8,77,64,43,30.05,29.97,6,2,11,0.00
2013-8-11,83.6,72.2,61.9,61.5,58.1,53.4,78,62,37,30.07,29.97,5,1,8,0.00
2013-8-12,81.8,71.7,61.7,70.4,63.9,55.4,78,75,63,30.01,29.82,4,0,5,0.05
2013-8-13,76.7,69.9,60.6,63.0,58.8,49.5,78,68,52,30.05,29.84,11,3,15,0.00
2013-8-14,70.5,61.9,53.6,51.7,47.9,45.0,78,61,43,30.12,30.04,8,2,11,0.00
2013-8-15,72.5,61.2,51.3,53.2,49.1,45.3,78,65,45,30.10,30.00,5,1,8,0.00
2013-8-16,74.9,65.1,53.2,55.0,51.5,47.2,78,62,43,30.07,30.01,6,2,9,0.00
2013-8-17,74.2,67.2,59.8,60.7,55.5,51.2,74,65,55,30.11,30.01,4,1,6,0.00
2013-8-18,80.4,69.6,61.2,64.4,58.8,54.5,78,68,49,30.09,29.99,3,1,6,0.00
2013-8-19,83.6,76.3,65.8,63.7,60.2,56.3,78,59,43,30.06,29.96,4,1,6,0.00
2013-8-20,86.4,73.2,62.6,68.8,61.8,56.0,78,68,48,30.05,29.96,4,0,5,0.00
2013-8-21,89.6,75.3,62.4,66.3,62.3,55.7,78,65,41,30.05,29.95,6,1,8,0.00
2013-8-22,91.0,77.9,66.8,69.5,65.2,60.3,78,66,44,30.03,29.92,6,2,8,0.00
2013-8-23,85.9,75.7,68.4,66.7,63.9,60.5,78,67,46,30.04,29.96,6,2,8,0.01
2013-8-24,86.9,74.7,63.5,65.6,61.2,55.5,78,64,37,30.14,30.03,5,1,9,0.00
2013-8-25,90.1,74.2,59.1,65.3,58.5,52.8,78,61,33,30.20,30.10,5,1,11,0.00
2013-8-26,93.1,78.2,65.4,70.4,65.2,58.3,78,65,36,30.15,30.00,6,2,10,0.00
2013-8-27,92.4,80.0,72.1,71.0,67.7,65.1,78,66,45,30.02,29.91,6,2,8,0.00
2013-8-28,95.2,81.2,70.2,68.3,65.0,60.8,78,60,34,29.95,29.88,8,2,11,0.00
2013-8-29,93.1,80.0,70.7,76.3,68.2,62.8,78,67,48,29.95,29.86,5,1,8,0.01
2013-8-30,98.2,82.4,69.3,72.2,67.6,62.7,78,63,37,29.89,29.74,6,2,9,0.00
2013-8-31,98.0,83.8,70.9,71.8,68.3,27.9,78,61,38,29.78,29.63,12,3,23,0.44
2013-9-1,90.8,75.9,68.8,73.0,66.4,62.0,78,72,52,29.75,29.68,6,2,8,0.00
2013-9-2,85.3,74.1,67.9,63.6,60.8,56.8,78,64,43,29.85,29.73,7,2,11,0.00
2013-9-3,80.2,69.3,59.9,58.3,56.3,52.6,78,64,42,29.99,29.85,5,2,11,0.00
2013-9-4,81.5,67.4,53.9,59.4,53.9,47.8,78,64,39,30.08,29.98,4,1,8,0.00
2013-9-5,84.3,69.3,56.1,62.8,57.1,49.7,78,66,43,30.12,30.03,4,1,7,0.00
2013-9-6,85.5,71.8,58.5,64.6,59.3,52.3,78,66,40,30.10,29.96,5,1,8,0.00
2013-9-7,89.9,74.5,60.1,65.8,60.9,53.6,78,64,39,29.98,29.84,6,2,9,0.00
2013-9-8,82.9,74.7,69.3,70.4,66.2,62.3,78,74,63,29.91,29.83,4,1,7,0.00
2013-9-9,94.7,81.3,70.3,71.1,67.4,63.7,78,64,41,29.90,29.83,5,2,9,0.01
2013-9-10,93.6,81.2,71.6,70.5,67.6,64.9,78,64,44,30.02,29.89,5,1,8,0.00
2013-9-11,96.6,81.4,69.1,68.9,64.8,56.5,78,60,30,30.06,29.93,6,2,10,0.00
2013-9-12,82.5,75.0,64.7,67.1,60.4,46.2,78,61,43,29.99,29.87,8,3,11,0.01
2013-9-13,73.3,64.0,55.9,51.8,46.9,40.2,78,55,34,30.04,29.94,9,4,13,0.00
2013-9-14,74.4,59.1,46.9,45.8,42.8,34.0,78,58,28,30.09,29.96,5,2,8,0.00
2013-9-15,80.8,63.1,45.8,56.3,47.7,40.0,78,60,30,30.03,29.90,6,2,9,0.00
2013-9-16,69.8,64.8,57.8,56.9,54.1,50.3,78,67,56,30.16,29.98,8,4,12,0.00
2013-9-17,77.8,65.1,53.9,56.4,51.9,47.8,78,63,41,30.16,30.00,7,2,11,0.00
2013-9-18,81.3,70.2,61.7,67.2,61.1,54.4,78,72,60,30.05,29.89,5,2,8,0.01
2013-9-19,90.5,77.2,69.6,68.0,65.6,63.0,78,68,45,29.94,29.79,8,3,11,0.00
2013-9-20,74.4,71.1,68.4,66.4,64.1,61.8,78,77,73,29.85,29.75,4,2,6,0.14
2013-9-21,72.8,64.4,53.6,51.0,47.5,43.8,77,56,38,29.84,29.78,8,3,14,0.01
2013-9-22,72.8,59.2,47.9,50.7,46.0,42.0,78,64,36,29.94,29.83,6,1,9,0.00
2013-9-23,74.4,59.8,46.7,49.1,45.0,40.8,78,61,33,29.97,29.87,8,2,11,0.00
2013-9-24,80.0,65.4,50.8,60.0,52.3,44.8,78,64,41,29.89,29.73,8,2,10,0.00
2013-9-25,82.0,69.1,59.9,60.9,56.9,51.9,78,66,39,29.79,29.71,6,1,11,0.00
2013-9-26,82.9,68.1,55.9,60.6,53.9,49.7,78,63,36,29.94,29.78,7,1,10,0.00
2013-9-27,80.2,64.7,49.4,55.6,50.2,43.4,78,62,36,30.05,29.94,8,2,11,0.00
2013-9-28,83.4,68.1,52.4,60.0,52.8,46.1,78,60,36,30.01,29.89,9,3,17,0.00
2013-9-29,73.7,64.5,58.3,58.5,55.6,52.1,78,72,53,29.95,29.85,7,2,11,0.27
2013-9-30,74.4,64.8,60.1,60.6,57.3,53.8,78,75,60,29.90,29.82,5,2,8,0.01
2013-10-1,77.9,68.8,61.9,65.6,61.0,55.5,78,75,63,29.95,29.86,5,2,8,0.00
2013-10-2,79.0,69.9,64.5,66.3,62.5,58.1,78,76,63,29.99,29.89,5,1,7,0.02
2013-10-3,83.6,72.8,66.1,66.0,61.7,59.6,78,68,49,29.92,29.81,8,3,14,0.00
2013-10-4,84.3,73.2,65.1,67.7,62.9,58.6,78,70,52,29.92,29.83,9,3,12,0.00
2013-10-5,79.7,69.8,64.0,67.8,62.6,57.4,78,76,65,29.89,29.70,10,2,12,0.63
2013-10-6,68.2,57.0,48.1,57.2,44.5,37.0,78,64,39,29.80,29.70,11,4,17,0.00
2013-10-7,67.2,55.0,46.0,48.3,44.0,40.0,78,66,44,30.05,29.78,7,2,8,0.00
2013-10-8,71.1,56.1,42.6,49.0,43.7,36.9,78,65,39,30.14,30.04,8,2,13,0.00
2013-10-9,75.3,57.4,42.5,54.4,46.2,36.7,78,67,41,30.12,30.00,4,1,6,0.00
2013-10-10,79.2,63.5,50.2,58.8,52.6,44.1,78,68,45,30.07,29.92,4,1,7,0.00
2013-10-11,80.6,65.4,55.0,58.5,53.0,48.7,78,66,41,29.96,29.84,7,2,11,0.00
2013-10-12,69.6,62.0,55.2,61.5,55.2,49.0,78,77,70,30.06,29.88,4,2,6,0.00
2013-10-13,73.0,59.6,47.6,51.6,38.2,25.8,75,49,21,30.26,30.06,7,3,11,0.00
2013-10-14,68.8,56.4,45.5,49.5,42.0,32.1,77,59,44,30.24,29.99,7,2,11,0.00
2013-10-15,65.6,62.0,56.2,59.1,55.4,47.5,78,77,70,29.99,29.80,9,4,13,0.12
2013-10-16,63.5,54.4,44.1,50.7,42.4,38.3,78,64,47,29.93,29.83,8,2,9,0.00
2013-10-17,61.5,49.6,43.0,45.1,41.0,37.3,78,72,49,29.91,29.83,7,2,11,0.02
2013-10-18,65.2,52.6,40.4,46.9,40.6,34.7,78,64,45,29.94,29.85,6,2,11,0.00
2013-10-19,58.0,47.8,40.4,42.0,36.2,31.5,78,64,40,29.91,29.83,10,3,12,0.20
2013-10-20,66.1,53.0,40.4,41.2,38.2,33.3,76,58,38,29.90,29.81,10,3,16,0.00
2013-10-21,54.6,49.8,37.5,44.0,39.4,31.4,77,66,57,29.96,29.84,6,2,10,0.00
2013-10-22,54.8,43.2,29.9,42.1,33.1,24.6,78,67,46,29.98,29.70,8,2,16,0.04
2013-10-23,49.7,42.4,37.9,35.3,31.0,25.5,78,64,41,30.02,29.80,8,3,12,0.00
2013-10-24,45.3,40.0,32.6,33.5,26.6,21.0,78,59,41,30.29,30.01,7,2,14,0.00
2013-10-25,52.7,38.5,25.7,27.7,23.5,20.1,78,57,31,30.42,30.15,5,2,9,0.00
2013-10-26,65.1,48.7,37.0,40.4,30.6,23.8,64,50,39,30.15,29.86,12,5,15,0.00
2013-10-27,59.9,42.6,29.2,31.5,27.6,23.2,78,59,27,30.03,29.93,5,1,8,0.00
2013-10-28,66.8,46.1,28.7,37.2,31.3,23.3,78,60,29,30.16,29.97,8,1,11,0.00
2013-10-29,54.8,47.9,37.7,48.7,41.0,31.3,78,75,66,30.18,29.98,10,3,11,0.05
2013-10-30,73.5,63.6,54.8,62.7,55.2,48.7,78,73,62,29.98,29.77,8,3,13,0.04
2013-10-31,64.7,60.6,50.9,58.3,54.3,44.9,78,78,78,29.78,29.26,14,6,21,1.48
2013-11-1,63.1,51.8,42.8,45.8,41.7,37.1,78,68,47,29.73,29.50,12,4,17,0.00
2013-11-2,53.9,45.6,36.3,42.2,37.1,30.8,78,71,53,30.08,29.72,7,2,13,0.00
2013-11-3,55.7,42.9,30.7,36.0,30.7,25.3,78,63,37,30.22,30.06,11,3,14,0.00
2013-11-4,57.3,49.8,41.1,42.3,37.4,33.1,74,62,50,30.17,30.08,11,6,14,0.00
2013-11-5,65.1,55.9,48.8,46.1,44.1,42.3,78,64,48,30.21,29.96,13,6,18,0.00
2013-11-6,60.3,50.2,37.9,50.4,43.3,32.1,78,76,60,30.12,29.85,11,5,17,0.25
2013-11-7,52.4,40.6,31.7,34.5,30.8,26.3,78,68,45,30.28,30.12,9,2,13,0.01
2013-11-8,54.3,41.3,27.7,34.3,27.3,22.4,78,59,34,30.29,30.03,12,4,16,0.00
2013-11-9,65.9,51.5,37.5,39.9,35.6,27.7,72,55,38,30.11,29.96,13,5,16,0.00
2013-11-10,55.2,44.2,30.8,35.5,30.6,25.5,78,59,35,30.31,30.10,9,2,13,0.00
2013-11-11,61.7,45.3,31.5,43.2,32.3,26.2,78,61,38,30.33,30.00,17,5,24,0.00
2013-11-12,37.4,30.3,25.0,27.5,19.0,16.0,77,61,46,30.62,30.32,15,8,21,0.00
2013-11-13,43.0,34.0,16.4,21.6,16.0,11.5,78,49,30,30.59,30.24,7,3,10,0.00
2013-11-14,54.8,43.1,31.9,21.8,19.0,12.6,57,40,22,30.25,29.98,13,6,17,0.00
2013-11-15,56.6,47.4,41.1,40.2,27.2,20.6,78,46,33,30.01,29.89,10,5,11,0.00
2013-11-16,65.6,56.6,45.1,57.2,48.8,39.3,78,74,57,29.90,29.58,16,10,23,0.11
2013-11-17,74.4,62.8,47.6,61.1,49.9,33.2,78,64,30,29.83,29.26,21,9,33,0.02
2013-11-18,58.0,45.5,34.0,38.8,30.9,23.0,78,58,33,30.18,29.83,10,4,15,0.00
2013-11-19,46.4,36.3,29.2,26.5,24.2,21.1,75,61,38,30.25,30.13,7,2,11,0.00
2013-11-20,49.2,39.9,28.0,35.9,29.0,22.0,78,64,51,30.16,29.98,13,6,15,0.00
2013-11-21,50.9,48.8,44.9,44.8,41.1,34.8,78,73,54,30.09,30.00,11,3,14,0.32
2013-11-22,50.4,42.7,34.2,44.4,36.3,27.6,78,76,70,30.37,30.06,14,7,17,0.01
2013-11-23,35.2,28.6,19.5,28.2,18.1,7.2,78,63,49,30.59,30.36,17,8,23,0.00
2013-11-24,28.9,21.7,14.4,14.2,8.4,2.8,73,56,33,30.66,30.35,8,3,11,0.00
2013-11-25,35.1,30.2,24.0,23.4,17.7,12.6,70,58,45,30.35,30.06,8,4,12,0.00
2013-11-26,43.7,33.1,22.4,26.6,21.1,8.0,75,60,47,30.11,29.91,15,5,21,0.00
2013-11-27,29.2,19.4,13.9,10.7,7.6,3.5,76,59,39,30.24,30.06,13,5,17,0.00
2013-11-28,43.4,29.0,13.7,21.0,15.3,7.7,76,57,38,30.37,30.14,12,4,17,0.00
2013-11-29,43.7,31.0,18.3,23.5,19.5,13.2,78,62,41,30.50,30.31,7,3,9,0.00
2013-11-30,54.5,40.9,25.9,31.1,25.9,19.2,75,56,36,30.31,30.01,11,5,16,0.00
2013-12-1,58.3,42.9,32.1,39.1,32.6,26.5,78,66,46,30.02,29.80,5,2,8,0.00
2013-12-2,54.5,43.2,34.5,42.5,35.8,29.1,78,73,62,29.81,29.59,9,3,12,0.00
2013-12-3,57.8,48.3,37.9,48.2,41.5,32.3,78,76,64,29.65,29.57,11,4,15,0.00
2013-12-4,65.8,55.9,43.5,55.1,48.2,37.8,78,74,63,29.71,29.45,15,7,21,0.02
2013-12-5,46.7,30.3,22.0,39.2,24.1,16.9,78,75,69,30.16,29.70,10,6,15,0.01
2013-12-6,22.2,20.4,16.2,16.9,14.4,7.6,78,75,65,30.45,30.13,12,8,17,0.00
2013-12-7,21.8,15.2,7.2,9.2,5.8,1.0,74,64,52,30.58,30.35,10,4,12,0.00
2013-12-8,27.0,23.7,18.5,21.7,17.0,8.9,78,73,63,30.35,29.89,10,5,12,0.00
2013-12-9,29.6,24.9,21.7,21.9,16.3,12.9,78,68,57,30.18,29.96,11,5,14,0.00
2013-12-10,28.5,20.1,9.7,16.2,11.8,4.7,78,68,54,30.24,30.14,12,4,17,0.00
2013-12-11,33.5,18.4,7.0,20.8,9.7,-1.9,78,67,54,30.54,30.22,11,4,17,0.00
2013-12-12,26.6,13.0,-2.5,11.4,1.5,-8.3,75,59,38,30.55,30.21,8,2,11,0.00
2013-12-13,37.5,27.0,10.0,27.2,18.2,4.2,78,68,46,30.20,29.89,13,5,17,0.04
2013-12-14,34.4,32.1,27.3,28.9,26.7,21.5,78,78,75,29.98,29.70,12,6,17,0.19
2013-12-15,31.4,26.5,22.0,24.3,19.9,16.4,78,73,63,30.08,29.95,11,6,15,0.01
2013-12-16,41.9,32.2,26.1,29.1,25.5,20.7,78,74,60,29.99,29.90,10,2,14,0.00
2013-12-17,36.7,28.3,24.5,26.2,21.4,16.9,78,73,63,30.15,29.98,11,4,14,0.00
2013-12-18,42.1,32.9,17.4,26.2,17.1,10.8,75,53,34,30.17,29.87,13,4,18,0.00
2013-12-19,55.0,48.8,41.8,44.3,36.8,26.1,67,62,52,29.90,29.72,12,7,19,0.00
2013-12-20,62.8,55.2,40.5,54.8,47.7,34.9,78,74,66,29.74,29.62,13,8,21,0.51
2013-12-21,40.5,35.8,34.4,34.9,30.3,28.9,78,78,78,29.72,29.32,13,5,19,1.26
2013-12-22,36.7,34.1,30.1,30.4,27.0,21.6,78,73,65,30.10,29.49,13,7,19,0.00
2013-12-23,30.1,24.8,13.9,21.6,12.5,0.2,68,58,50,30.44,30.10,10,6,17,0.00
2013-12-24,22.4,16.5,8.6,6.7,-0.7,-9.5,58,46,26,30.52,30.28,12,6,13,0.00
2013-12-25,33.5,28.3,19.7,22.3,13.3,4.3,63,52,42,30.30,30.12,10,5,13,0.00
2013-12-26,42.8,33.2,22.5,22.0,18.2,14.0,73,55,32,30.29,30.16,8,4,13,0.00
2013-12-27,51.5,39.0,28.9,26.1,22.1,18.8,64,51,30,30.28,30.14,8,4,13,0.00
2013-12-28,53.6,41.7,31.9,25.9,23.0,19.4,65,49,29,30.15,29.81,8,4,12,0.00
2013-12-29,41.6,31.7,19.9,26.7,18.9,6.4,63,57,46,30.11,29.74,14,6,21,0.00
2013-12-30,25.2,18.2,10.4,6.3,-0.3,-9.6,57,44,24,30.25,30.10,9,4,16,0.00
2013-12-31,39.5,30.8,21.1,16.8,9.7,5.2,53,42,26,30.30,30.09,11,5,17,0.00
2014-1-1,45.5,37.5,30.5,23.8,18.8,14.1,70,47,30,30.09,29.86,10,4,14,0.00
2014-1-2,30.5,17.8,7.4,22.1,6.3,-4.0,69,58,52,30.35,29.84,14,9,22,0.00